Time;durP1;ratioP1;P1;durP2;ratioP2;P2;SDS_P1;SDS_P2;PMS_P1;PMS_P2;Temp;Humidity;BMP_temperature;BMP_pressure;BME280_temperature;BME280_humidity;BME280_pressure;Samples;Min_cycle;Max_cycle;Signal;HPM_P1;HPM_P2
2024/04/12 00:01:01;;;;;;;4.57;2.50;;;6.70;99.90;;;;;;5418735;26;20771;-68
2024/04/12 00:03:31;;;;;;;2.80;2.40;;;6.50;99.90;;;;;;5418083;26;20753;-68
2024/04/12 00:06:05;;;;;;;3.63;2.60;;;6.50;99.90;;;;;;5418085;26;20221;-68
2024/04/12 00:08:31;;;;;;;3.77;2.90;;;6.50;99.90;;;;;;5418458;26;20248;-68
2024/04/12 00:11:03;;;;;;;4.20;2.97;;;6.70;99.90;;;;;;5419134;26;20241;-69
2024/04/12 00:13:31;;;;;;;3.83;3.07;;;6.50;99.90;;;;;;5418315;26;20217;-69
2024/04/12 00:16:03;;;;;;;3.23;2.80;;;6.40;99.90;;;;;;5418158;26;20255;-69
2024/04/12 00:18:33;;;;;;;2.63;2.43;;;6.30;99.90;;;;;;5418575;26;20282;-69
2024/04/12 00:21:02;;;;;;;7.30;3.10;;;6.20;99.90;;;;;;5418162;26;20229;-68
2024/04/12 00:23:30;;;;;;;4.87;2.97;;;6.20;99.90;;;;;;5417961;26;20217;-69
2024/04/12 00:26:00;;;;;;;4.10;3.47;;;6.00;99.90;;;;;;5418366;26;20329;-69
2024/04/12 00:28:26;;;;;;;4.43;3.20;;;5.90;99.90;;;;;;5418053;26;20269;-69
2024/04/12 00:30:59;;;;;;;3.77;2.93;;;5.90;99.90;;;;;;5418151;26;20338;-69
2024/04/12 00:33:31;;;;;;;4.50;3.27;;;5.80;99.90;;;;;;5419608;26;20253;-69
2024/04/12 00:36:07;;;;;;;8.80;3.53;;;5.80;99.90;;;;;;5419756;26;20441;-68
2024/04/12 00:38:35;;;;;;;4.17;3.20;;;5.80;99.90;;;;;;5418037;26;20209;-68
2024/04/12 00:41:11;;;;;;;5.77;3.00;;;5.70;99.90;;;;;;5418321;26;20234;-68
2024/04/12 00:43:39;;;;;;;4.30;2.90;;;5.60;99.90;;;;;;5417562;26;20243;-69
2024/04/12 00:46:08;;;;;;;4.40;3.20;;;5.60;99.90;;;;;;5417603;26;20218;-69
2024/04/12 00:48:36;;;;;;;4.13;3.00;;;5.70;99.90;;;;;;5418347;26;20221;-69
2024/04/12 00:51:09;;;;;;;4.60;3.17;;;5.70;99.90;;;;;;5417719;26;20630;-67
2024/04/12 00:53:38;;;;;;;3.93;2.97;;;5.60;99.90;;;;;;5418145;26;20551;-69
2024/04/12 00:56:09;;;;;;;6.50;3.57;;;5.70;99.90;;;;;;5417870;26;20655;-71
2024/04/12 00:58:35;;;;;;;3.43;3.13;;;5.70;99.90;;;;;;5418182;26;20217;-68
2024/04/12 01:01:10;;;;;;;3.23;2.93;;;5.70;99.90;;;;;;5417632;26;20293;-67
2024/04/12 01:03:45;;;;;;;4.50;3.13;;;5.70;99.90;;;;;;5417726;26;20710;-68
2024/04/12 01:06:18;;;;;;;6.07;3.07;;;5.70;99.90;;;;;;5418549;26;20217;-69
2024/04/12 01:08:44;;;;;;;3.83;3.20;;;5.60;99.90;;;;;;5417794;26;20326;-68
2024/04/12 01:11:13;;;;;;;5.40;3.30;;;5.60;99.90;;;;;;5417053;26;20249;-67
2024/04/12 01:13:39;;;;;;;3.63;2.77;;;5.50;99.90;;;;;;5417388;26;20629;-69
2024/04/12 01:16:10;;;;;;;4.03;2.77;;;5.60;99.90;;;;;;5419035;26;20237;-69
2024/04/12 01:18:36;;;;;;;3.47;3.00;;;5.60;99.90;;;;;;5419601;26;20217;-67
2024/04/12 01:21:10;;;;;;;3.13;2.87;;;5.60;99.90;;;;;;5417176;26;20662;-67
2024/04/12 01:23:42;;;;;;;4.40;3.30;;;5.60;99.90;;;;;;5417362;26;20765;-67
2024/04/12 01:26:14;;;;;;;3.27;2.97;;;5.50;99.90;;;;;;5417734;26;20276;-67
2024/04/12 01:28:42;;;;;;;3.37;3.07;;;5.50;99.90;;;;;;5418398;26;20706;-68
2024/04/12 01:31:14;;;;;;;3.47;3.00;;;5.40;99.90;;;;;;5417907;26;20233;-68
2024/04/12 01:33:42;;;;;;;7.47;3.43;;;5.40;99.90;;;;;;5418304;26;20332;-68
2024/04/12 01:36:11;;;;;;;4.33;2.90;;;5.40;99.90;;;;;;5417858;26;20229;-69
2024/04/12 01:38:38;;;;;;;4.00;3.00;;;5.40;99.90;;;;;;5419345;26;20260;-69
2024/04/12 01:41:08;;;;;;;4.20;2.80;;;5.40;99.90;;;;;;5418987;26;20237;-68
2024/04/12 01:43:38;;;;;;;3.53;2.97;;;5.40;99.90;;;;;;5418099;26;20310;-68
2024/04/12 01:46:07;;;;;;;4.93;3.33;;;5.30;99.90;;;;;;5418653;26;20229;-68
2024/04/12 01:48:34;;;;;;;3.40;2.80;;;5.40;99.90;;;;;;5419395;26;20553;-69
2024/04/12 01:51:13;;;;;;;3.47;3.17;;;5.30;99.90;;;;;;5423122;26;20250;-68
2024/04/12 01:53:40;;;;;;;2.97;2.67;;;5.30;99.90;;;;;;5429903;26;20312;-68
2024/04/12 01:56:09;;;;;;;3.43;3.03;;;5.20;99.90;;;;;;5432917;26;20265;-68
2024/04/12 01:58:39;;;;;;;5.50;3.63;;;5.20;99.90;;;;;;5431933;26;20245;-68
2024/04/12 02:01:11;;;;;;;4.13;3.27;;;5.20;99.90;;;;;;5421597;26;20245;-68
2024/04/12 02:03:37;;;;;;;5.23;3.60;;;5.10;99.90;;;;;;5420640;26;20725;-68
2024/04/12 02:06:06;;;;;;;4.10;3.63;;;5.10;99.90;;;;;;5420417;26;20338;-69
2024/04/12 02:08:32;;;;;;;4.93;3.60;;;5.00;99.90;;;;;;5420532;26;20711;-69
2024/04/12 02:11:05;;;;;;;3.60;3.30;;;4.90;99.90;;;;;;5421430;26;20761;-67
2024/04/12 02:13:36;;;;;;;4.47;2.97;;;5.00;99.90;;;;;;5435833;26;20261;-69
2024/04/12 02:16:10;;;;;;;6.87;2.97;;;4.90;99.90;;;;;;5422037;26;20217;-69
2024/04/12 02:18:38;;;;;;;4.30;3.07;;;4.80;99.90;;;;;;5422359;26;20339;-70
2024/04/12 02:21:10;;;;;;;3.33;2.90;;;4.80;99.90;;;;;;5420256;26;20238;-71
2024/04/12 02:23:37;;;;;;;5.37;3.07;;;4.90;99.90;;;;;;5422696;26;20595;-69
2024/04/12 02:26:08;;;;;;;3.73;2.80;;;5.00;99.90;;;;;;5421357;26;20234;-71
2024/04/12 02:28:36;;;;;;;5.03;2.97;;;4.90;99.90;;;;;;5420145;26;20753;-69
2024/04/12 02:31:12;;;;;;;3.00;2.47;;;5.00;99.90;;;;;;5420620;26;20621;-69
2024/04/12 02:33:38;;;;;;;5.33;3.23;;;5.00;99.90;;;;;;5420346;26;20321;-69
2024/04/12 02:36:11;;;;;;;5.23;3.40;;;5.20;99.90;;;;;;5420896;26;20277;-69
2024/04/12 02:38:38;;;;;;;7.77;3.07;;;5.00;99.90;;;;;;5421335;26;20344;-70
2024/04/12 02:41:13;;;;;;;3.67;3.37;;;4.90;99.90;;;;;;5420406;26;20241;-69
2024/04/12 02:43:40;;;;;;;3.30;2.97;;;4.80;99.90;;;;;;5420530;26;20286;-69
2024/04/12 02:46:12;;;;;;;4.17;3.77;;;4.70;99.90;;;;;;5429202;26;20299;-70
2024/04/12 02:48:40;;;;;;;5.23;3.10;;;4.60;99.90;;;;;;5421585;26;20218;-70
2024/04/12 02:51:12;;;;;;;4.47;3.33;;;4.60;99.90;;;;;;5424388;26;20237;-70
2024/04/12 02:53:39;;;;;;;5.10;3.33;;;4.50;99.90;;;;;;5429391;26;20252;-69
2024/04/12 02:56:11;;;;;;;7.80;3.57;;;4.60;99.90;;;;;;5425842;26;20288;-69
2024/04/12 02:58:39;;;;;;;6.90;3.83;;;4.60;99.90;;;;;;5421870;26;20283;-69
2024/04/12 03:01:11;;;;;;;4.77;2.97;;;4.60;99.90;;;;;;5421062;26;20234;-70
2024/04/12 03:03:39;;;;;;;4.23;3.47;;;4.70;99.90;;;;;;5420055;26;20366;-68
2024/04/12 03:06:09;;;;;;;5.30;3.13;;;4.70;99.90;;;;;;5419446;26;20261;-67
2024/04/12 03:08:36;;;;;;;5.83;3.60;;;4.70;99.90;;;;;;5419344;26;20252;-67
2024/04/12 03:11:25;;;;;;;3.57;3.27;;;4.80;99.90;;;;;;5421183;26;20271;-70
2024/04/12 03:13:52;;;;;;;4.03;2.83;;;4.80;99.90;;;;;;5420241;26;20357;-70
2024/04/12 03:16:24;;;;;;;5.17;3.30;;;4.80;99.90;;;;;;5419270;26;20268;-69
2024/04/12 03:18:51;;;;;;;4.87;3.60;;;4.80;99.90;;;;;;5419861;26;20277;-69
2024/04/12 03:21:21;;;;;;;4.90;3.23;;;4.80;99.90;;;;;;5419024;26;20281;-69
2024/04/12 03:23:48;;;;;;;8.60;3.73;;;4.80;99.90;;;;;;5420117;26;20265;-67
2024/04/12 03:26:18;;;;;;;3.97;3.10;;;4.80;99.90;;;;;;5419826;26;20237;-68
2024/04/12 03:28:45;;;;;;;3.20;2.87;;;4.80;99.90;;;;;;5419082;26;20210;-68
2024/04/12 03:31:14;;;;;;;5.20;2.97;;;4.90;99.90;;;;;;5420042;26;20267;-69
2024/04/12 03:33:42;;;;;;;3.60;2.57;;;4.90;99.90;;;;;;5419258;26;20221;-69
2024/04/12 03:36:53;;;;;;;3.80;3.00;;;5.00;99.90;;;;;;5418825;26;20326;-68
2024/04/12 03:39:24;;;;;;;3.43;3.13;;;4.90;99.90;;;;;;5420523;26;20217;-68
2024/04/12 03:41:56;;;;;;;4.77;3.33;;;4.90;99.90;;;;;;5419966;26;20318;-68
2024/04/12 03:44:25;;;;;;;3.83;3.43;;;4.80;99.90;;;;;;5419224;26;20222;-68
2024/04/12 03:46:57;;;;;;;5.47;3.60;;;4.80;99.90;;;;;;5418759;26;20221;-68
2024/04/12 03:49:28;;;;;;;5.80;3.50;;;4.70;99.90;;;;;;5419272;26;20265;-68
2024/04/12 03:51:58;;;;;;;4.40;3.47;;;4.60;99.90;;;;;;5418642;26;20318;-68
2024/04/12 03:54:25;;;;;;;3.63;3.33;;;4.60;99.90;;;;;;5418315;26;20567;-68
2024/04/12 03:56:56;;;;;;;4.10;3.33;;;4.80;99.90;;;;;;5418976;26;20233;-68
2024/04/12 03:59:24;;;;;;;5.10;3.63;;;4.80;99.90;;;;;;5418498;26;20210;-68
2024/04/12 04:01:54;;;;;;;4.00;3.60;;;4.80;99.90;;;;;;5418559;26;20229;-68
2024/04/12 04:04:25;;;;;;;6.03;3.73;;;4.80;99.90;;;;;;5418407;26;20272;-69
2024/04/12 04:06:58;;;;;;;6.20;3.60;;;4.70;99.90;;;;;;5418744;26;20217;-69
2024/04/12 04:09:25;;;;;;;5.37;3.80;;;4.70;99.90;;;;;;5418320;26;20218;-69
2024/04/12 04:11:55;;;;;;;6.83;3.63;;;4.60;99.90;;;;;;5418495;26;20718;-68
2024/04/12 04:14:25;;;;;;;4.10;3.70;;;4.70;99.90;;;;;;5418694;26;20228;-68
2024/04/12 04:16:55;;;;;;;5.83;3.90;;;4.70;99.90;;;;;;5418351;26;20565;-68
2024/04/12 04:19:30;;;;;;;5.27;3.53;;;4.70;99.90;;;;;;5416548;26;20233;-68
2024/04/12 04:22:04;;;;;;;4.37;3.27;;;4.70;99.90;;;;;;5418544;26;20285;-68
2024/04/12 04:24:33;;;;;;;5.43;3.47;;;4.70;99.90;;;;;;5418365;26;20225;-69
2024/04/12 04:27:02;;;;;;;5.00;3.40;;;4.60;99.90;;;;;;5417927;26;20694;-69
2024/04/12 04:29:28;;;;;;;3.77;3.13;;;4.60;99.90;;;;;;5418206;26;20221;-69
2024/04/12 04:31:57;;;;;;;3.87;3.50;;;4.60;99.90;;;;;;5417960;26;20268;-69
2024/04/12 04:34:25;;;;;;;4.03;3.63;;;4.60;99.90;;;;;;5417912;26;20241;-68
2024/04/12 04:36:56;;;;;;;5.67;3.83;;;4.50;99.90;;;;;;5417760;26;20577;-69
2024/04/12 04:39:26;;;;;;;4.33;3.93;;;4.70;99.90;;;;;;5417996;26;20303;-69
2024/04/12 04:41:58;;;;;;;5.23;4.23;;;4.50;99.90;;;;;;5418259;26;20245;-70
2024/04/12 04:44:24;;;;;;;4.67;4.23;;;4.30;99.90;;;;;;5420361;26;20217;-70
2024/04/12 04:46:56;;;;;;;6.97;3.70;;;4.30;99.90;;;;;;5419920;26;20225;-70
2024/04/12 04:49:23;;;;;;;4.00;3.60;;;4.20;99.90;;;;;;5420066;26;20607;-70
2024/04/12 04:51:54;;;;;;;4.13;3.60;;;4.10;99.90;;;;;;5419550;26;20742;-69
2024/04/12 04:54:22;;;;;;;3.83;3.20;;;4.10;99.90;;;;;;5418257;26;20271;-70
2024/04/12 04:56:53;;;;;;;3.93;3.37;;;4.10;99.90;;;;;;5418425;26;20217;-72
2024/04/12 04:59:28;;;;;;;7.73;3.47;;;4.10;99.90;;;;;;5418159;26;20214;-72
2024/04/12 05:01:57;;;;;;;3.93;3.53;;;4.00;99.90;;;;;;5418376;26;20262;-70
2024/04/12 05:04:25;;;;;;;9.43;3.43;;;4.10;99.90;;;;;;5418145;26;20557;-71
2024/04/12 05:06:55;;;;;;;4.50;3.80;;;4.10;99.90;;;;;;5418176;26;20281;-69
2024/04/12 05:09:21;;;;;;;5.47;3.67;;;4.20;99.90;;;;;;5417924;26;20213;-69
2024/04/12 05:11:53;;;;;;;4.73;3.90;;;4.20;99.90;;;;;;5418060;26;20730;-71
2024/04/12 05:17:03;;;;;;;5.47;3.97;;;4.30;99.90;;;;;;5416441;26;20233;-72
2024/04/12 05:19:34;;;;;;;4.30;3.90;;;4.30;99.90;;;;;;5417517;26;20260;-72
2024/04/12 05:22:03;;;;;;;4.63;3.93;;;4.40;99.90;;;;;;5417502;26;20351;-72
2024/04/12 05:24:33;;;;;;;5.47;4.07;;;4.30;99.90;;;;;;5417822;26;20272;-72
2024/04/12 05:27:04;;;;;;;4.97;3.80;;;4.30;99.90;;;;;;5417981;26;20233;-71
2024/04/12 05:29:33;;;;;;;6.87;4.20;;;4.40;99.90;;;;;;5418459;26;20260;-70
2024/04/12 05:31:59;;;;;;;7.10;4.70;;;4.50;99.90;;;;;;5423191;26;20234;-69
2024/04/12 05:34:28;;;;;;;5.80;3.80;;;4.50;99.90;;;;;;5420953;26;20716;-68
2024/04/12 05:36:55;;;;;;;5.47;3.93;;;4.60;99.90;;;;;;5421488;26;20261;-68
2024/04/12 05:39:24;;;;;;;5.50;3.87;;;4.60;99.90;;;;;;5432773;26;20229;-69
2024/04/12 05:41:53;;;;;;;6.00;4.37;;;4.70;99.90;;;;;;5438652;26;20245;-69
2024/04/12 05:44:26;;;;;;;4.00;3.60;;;4.90;99.90;;;;;;5438683;26;20225;-68
2024/04/12 05:46:52;;;;;;;4.93;3.80;;;4.90;99.90;;;;;;5432501;26;20253;-69
2024/04/12 05:49:21;;;;;;;5.73;3.73;;;5.00;99.90;;;;;;5422854;26;20256;-70
2024/04/12 05:51:49;;;;;;;4.60;3.57;;;5.10;99.90;;;;;;5421745;26;20230;-66
2024/04/12 05:54:18;;;;;;;4.23;3.67;;;5.20;99.90;;;;;;5420263;26;20225;-67
2024/04/12 05:56:44;;;;;;;7.00;3.97;;;5.30;99.90;;;;;;5420297;26;20225;-66
2024/04/12 05:59:13;;;;;;;4.27;3.47;;;5.40;99.90;;;;;;5420176;26;20230;-66
2024/04/12 06:01:43;;;;;;;6.30;3.87;;;5.60;99.90;;;;;;5419818;26;20229;-66
2024/04/12 06:04:18;;;;;;;5.57;3.90;;;5.70;99.90;;;;;;5419637;26;20222;-66
2024/04/12 06:06:45;;;;;;;8.60;3.87;;;5.80;99.90;;;;;;5419751;26;20623;-66
2024/04/12 06:09:20;;;;;;;4.13;3.17;;;5.90;99.90;;;;;;5419797;26;20217;-67
2024/04/12 06:11:50;;;;;;;5.50;3.20;;;6.00;99.90;;;;;;5419854;26;20343;-66
2024/04/12 06:14:20;;;;;;;7.13;3.37;;;6.10;99.90;;;;;;5419658;26;20217;-67
2024/04/12 06:16:51;;;;;;;6.47;3.77;;;6.20;99.90;;;;;;5419538;26;20260;-66
2024/04/12 06:19:20;;;;;;;4.90;3.43;;;6.20;99.90;;;;;;5419542;26;20206;-66
2024/04/12 06:21:47;;;;;;;4.10;3.70;;;6.30;99.90;;;;;;5419567;26;20233;-66
2024/04/12 06:24:16;;;;;;;6.47;3.97;;;6.30;99.90;;;;;;5419468;26;20294;-66
2024/04/12 06:26:47;;;;;;;6.40;3.50;;;6.50;99.90;;;;;;5419546;26;20221;-66
2024/04/12 06:29:16;;;;;;;5.00;3.63;;;6.50;99.90;;;;;;5419733;26;20209;-66
2024/04/12 06:31:44;;;;;;;4.83;3.53;;;6.60;99.90;;;;;;5419311;26;20345;-67
2024/04/12 06:34:17;;;;;;;5.37;2.83;;;6.80;99.90;;;;;;5419011;26;20291;-67
2024/04/12 06:36:45;;;;;;;7.50;3.30;;;7.00;99.90;;;;;;5420319;26;20210;-66
2024/04/12 06:39:14;;;;;;;6.87;3.50;;;7.20;99.90;;;;;;5419234;26;20264;-66
2024/04/12 06:41:40;;;;;;;4.63;3.33;;;7.30;99.90;;;;;;5417975;26;20742;-67
2024/04/12 06:44:15;;;;;;;3.83;3.47;;;7.60;99.90;;;;;;5418978;26;20247;-67
2024/04/12 06:46:43;;;;;;;5.17;3.60;;;7.70;99.90;;;;;;5419260;26;20282;-66
2024/04/12 06:49:15;;;;;;;5.97;3.30;;;7.90;99.90;;;;;;5424095;26;20682;-66
2024/04/12 06:52:08;;;;;;;4.73;3.57;;;8.00;99.90;;;;;;5421334;26;20265;-67
2024/04/12 06:54:35;;;;;;;4.43;3.73;;;8.20;99.90;;;;;;5418723;26;20264;-67
2024/04/12 06:57:06;;;;;;;7.63;3.90;;;8.30;99.90;;;;;;5418666;26;20702;-67
2024/04/12 06:59:35;;;;;;;4.43;4.00;;;8.50;99.90;;;;;;5418444;26;20213;-67
2024/04/12 07:02:07;;;;;;;4.10;3.33;;;8.60;99.90;;;;;;5418358;26;20573;-67
2024/04/12 07:04:38;;;;;;;4.10;3.47;;;8.80;99.90;;;;;;5418180;26;20214;-67
2024/04/12 07:07:07;;;;;;;7.23;3.83;;;9.00;99.90;;;;;;5418371;26;20217;-67
2024/04/12 07:09:33;;;;;;;5.17;3.57;;;9.10;99.90;;;;;;5418663;26;20230;-67
2024/04/12 07:12:05;;;;;;;8.27;3.20;;;9.20;99.90;;;;;;5418642;26;20263;-67
2024/04/12 07:14:35;;;;;;;5.23;3.50;;;9.30;99.90;;;;;;5418669;26;20217;-67
2024/04/12 07:17:15;;;;;;;7.50;4.03;;;9.50;99.90;;;;;;5418729;26;20290;-67
2024/04/12 07:19:49;;;;;;;5.17;3.10;;;9.80;99.90;;;;;;5418504;26;20213;-67
2024/04/12 07:22:19;;;;;;;5.00;3.13;;;10.10;99.90;;;;;;5418775;26;20761;-67
2024/04/12 07:24:47;;;;;;;6.47;4.00;;;10.40;99.90;;;;;;5418539;26;20229;-68
2024/04/12 07:27:17;;;;;;;4.07;3.43;;;10.50;99.90;;;;;;5418730;26;20299;-67
2024/04/12 07:29:44;;;;;;;7.10;3.80;;;10.60;99.90;;;;;;5418538;26;20233;-69
2024/04/12 07:32:14;;;;;;;4.63;3.53;;;10.70;99.90;;;;;;5418658;26;20249;-68
2024/04/12 07:34:48;;;;;;;5.40;3.83;;;10.90;99.90;;;;;;5418208;26;20326;-67
2024/04/12 07:37:26;;;;;;;3.53;3.23;;;11.00;99.90;;;;;;5418262;26;20205;-67
2024/04/12 07:42:45;;;;;;;6.90;4.43;;;11.20;99.90;;;;;;5418159;26;20251;-67
2024/04/12 07:45:20;;;;;;;5.33;3.60;;;11.30;99.90;;;;;;5417991;26;20260;-67
2024/04/12 07:48:00;;;;;;;5.70;4.33;;;11.60;99.90;;;;;;5418126;26;20221;-67
2024/04/12 07:50:28;;;;;;;5.77;4.23;;;11.80;99.90;;;;;;5418156;26;20226;-67
2024/04/12 07:53:10;;;;;;;4.40;4.00;;;12.00;99.90;;;;;;5417451;26;20651;-67
2024/04/12 07:55:37;;;;;;;6.30;4.57;;;12.00;99.90;;;;;;5418308;26;20550;-67
2024/04/12 07:58:08;;;;;;;7.30;4.40;;;12.20;99.90;;;;;;5418027;26;20652;-67
2024/04/12 08:00:42;;;;;;;5.60;4.40;;;12.20;99.90;;;;;;5418049;26;20226;-67
2024/04/12 08:03:14;;;;;;;5.10;4.60;;;12.40;99.90;;;;;;5418058;26;20221;-67
2024/04/12 08:05:59;;;;;;;7.07;4.03;;;12.50;99.90;;;;;;5418143;26;20327;-67
2024/04/12 08:08:43;;;;;;;7.53;4.67;;;12.70;99.90;;;;;;5418038;26;20228;-67
2024/04/12 08:11:12;;;;;;;6.50;4.37;;;12.80;99.90;;;;;;5417854;26;20225;-67
2024/04/12 08:13:50;;;;;;;5.97;4.63;;;13.00;99.90;;;;;;5418023;26;20671;-67
2024/04/12 08:16:16;;;;;;;7.13;4.30;;;13.20;99.90;;;;;;5417912;26;20264;-67
2024/04/12 08:18:54;;;;;;;5.20;4.40;;;13.40;99.90;;;;;;5417690;26;20268;-67
2024/04/12 08:21:27;;;;;;;6.47;4.50;;;13.60;99.90;;;;;;5417798;26;20624;-67
2024/04/12 08:24:07;;;;;;;10.67;4.10;;;13.70;99.90;;;;;;5417909;26;20250;-67
2024/04/12 08:26:33;;;;;;;6.03;4.53;;;13.80;99.90;;;;;;5418029;26;20221;-67
2024/04/12 08:29:04;;;;;;;4.57;4.13;;;14.00;99.90;;;;;;5417972;26;20285;-67
2024/04/12 08:31:30;;;;;;;8.40;4.63;;;14.00;99.90;;;;;;5417929;26;20259;-67
2024/04/12 08:33:58;;;;;;;6.70;4.67;;;14.20;99.90;;;;;;5417723;26;20229;-67
2024/04/12 08:36:24;;;;;;;5.93;4.10;;;14.30;99.90;;;;;;5417707;26;20217;-67
2024/04/12 08:39:12;;;;;;;8.20;4.80;;;14.50;99.90;;;;;;5417711;26;20225;-67
2024/04/12 08:41:42;;;;;;;6.43;5.05;;;14.60;99.90;;;;;;5417532;26;20233;-67
2024/04/12 08:44:12;;;;;;;7.13;4.95;;;14.80;99.90;;;;;;5417460;26;20237;-67
2024/04/12 08:46:43;;;;;;;7.90;4.70;;;14.80;99.90;;;;;;5417917;26;20259;-67
2024/04/12 08:49:14;;;;;;;6.28;4.45;;;14.90;99.90;;;;;;5417834;26;20702;-67
2024/04/12 08:51:40;;;;;;;5.63;4.65;;;15.00;99.90;;;;;;5417741;26;20252;-67
2024/04/12 08:54:11;;;;;;;7.72;5.20;;;15.10;99.90;;;;;;5417482;26;20222;-67
2024/04/12 08:56:45;;;;;;;6.85;4.53;;;15.20;99.90;;;;;;5417194;26;20217;-67
2024/04/12 08:59:18;;;;;;;5.25;4.65;;;15.30;99.90;;;;;;5416806;26;20246;-68
2024/04/12 09:01:46;;;;;;;5.60;5.00;;;15.30;99.90;;;;;;5417113;26;20264;-68
2024/04/12 09:04:20;;;;;;;8.52;5.00;;;15.50;99.90;;;;;;5416719;26;20277;-68
2024/04/12 09:06:48;;;;;;;7.20;4.78;;;15.60;99.90;;;;;;5420121;26;20210;-68
2024/04/12 09:09:17;;;;;;;7.80;5.13;;;15.70;99.90;;;;;;5420147;26;20232;-68
2024/04/12 09:11:45;;;;;;;7.53;5.10;;;15.90;99.90;;;;;;5420022;26;20233;-68
2024/04/12 09:14:20;;;;;;;8.10;5.50;;;16.10;99.90;;;;;;5420029;26;20221;-69
2024/04/12 09:16:48;;;;;;;9.52;5.63;;;16.20;99.90;;;;;;5420374;26;20317;-69
2024/04/12 09:19:18;;;;;;;7.30;5.00;;;16.50;99.90;;;;;;5420096;26;20225;-69
2024/04/12 09:21:58;;;;;;;10.40;4.90;;;16.80;99.90;;;;;;5420099;26;20229;-69
2024/04/12 09:24:31;;;;;;;8.27;5.13;;;17.00;99.90;;;;;;5420118;26;20217;-68
2024/04/12 09:27:06;;;;;;;10.10;5.50;;;17.20;99.90;;;;;;5420453;26;20374;-67
2024/04/12 09:29:43;;;;;;;7.22;5.30;;;17.40;99.90;;;;;;5420048;26;20213;-68
2024/04/12 09:34:58;;;;;;;6.50;5.28;;;17.90;99.90;;;;;;5423176;26;20200;-68
2024/04/12 09:37:38;;;;;;;7.57;5.68;;;17.80;99.90;;;;;;5420213;26;20260;-68
2024/04/12 09:40:16;;;;;;;11.68;6.13;;;17.90;99.90;;;;;;5420461;26;20339;-68
2024/04/12 09:43:24;;;;;;;15.95;5.85;;;17.90;99.90;;;;;;5421209;26;20256;-68
2024/04/12 09:45:52;;;;;;;12.18;4.90;;;17.90;99.90;;;;;;5420242;26;20314;-68
2024/04/12 10:38:35;;;;;;;8.07;5.40;;;21.10;95.40;;;;;;5421986;26;20295;-68
2024/04/12 10:41:07;;;;;;;7.35;5.68;;;21.40;94.30;;;;;;5419027;26;20229;-67
2024/04/12 10:43:37;;;;;;;8.40;5.75;;;21.50;94.00;;;;;;5419019;26;20329;-67
2024/04/12 10:46:10;;;;;;;10.38;5.50;;;21.80;95.60;;;;;;5418787;26;20693;-68
2024/04/12 10:48:39;;;;;;;7.18;5.43;;;22.30;94.90;;;;;;5419130;26;20221;-68
2024/04/12 10:51:09;;;;;;;9.90;5.20;;;23.00;95.60;;;;;;5418881;26;20252;-68
2024/04/12 10:53:38;;;;;;;6.95;6.25;;;23.20;94.50;;;;;;5418743;26;20318;-67
2024/04/12 10:56:11;;;;;;;7.00;5.43;;;22.90;91.10;;;;;;5418809;26;20225;-67
2024/04/12 10:58:47;;;;;;;5.95;5.35;;;22.10;88.60;;;;;;5419303;26;20714;-68
2024/04/12 11:01:16;;;;;;;7.25;5.18;;;22.20;86.50;;;;;;5419762;26;20811;-67
2024/04/12 11:03:56;;;;;;;5.15;4.65;;;22.10;90.50;;;;;;5419235;26;20221;-68
2024/04/12 11:06:31;;;;;;;7.03;4.90;;;21.80;87.20;;;;;;5418853;26;20248;-68
2024/04/12 11:08:59;;;;;;;6.18;4.88;;;21.50;85.70;;;;;;5419148;26;20268;-68
2024/04/12 11:11:31;;;;;;;8.73;5.40;;;21.30;84.70;;;;;;5418942;26;20245;-67
2024/04/12 11:13:59;;;;;;;6.32;4.95;;;20.90;85.00;;;;;;5419189;26;20264;-68
2024/04/12 11:33:05;;;;;;;5.65;4.97;;;24.50;85.30;;;;;;5421840;26;20209;-68
2024/04/12 11:35:37;;;;;;;7.85;5.85;;;23.90;82.20;;;;;;5418757;26;20260;-68
2024/04/12 11:38:13;;;;;;;8.10;5.32;;;24.20;78.00;;;;;;5418575;26;20213;-69
2024/04/12 11:40:45;;;;;;;6.85;5.00;;;24.70;78.20;;;;;;5418334;26;20292;-68
2024/04/12 11:43:13;;;;;;;9.85;5.30;;;25.40;76.10;;;;;;5418758;26;20268;-69
2024/04/12 11:45:41;;;;;;;7.70;5.65;;;26.00;74.80;;;;;;5418541;26;20702;-69
2024/04/12 11:48:14;;;;;;;10.82;5.05;;;25.40;66.80;;;;;;5418999;26;20762;-69
2024/04/12 11:50:49;;;;;;;11.77;5.30;;;26.30;68.90;;;;;;5418433;26;20326;-68
2024/04/12 11:53:15;;;;;;;6.68;5.13;;;26.70;61.70;;;;;;5418352;26;20229;-69
2024/04/12 11:55:44;;;;;;;9.07;4.70;;;25.60;60.30;;;;;;5418565;26;20323;-69
2024/04/12 11:58:10;;;;;;;6.85;4.47;;;25.90;60.90;;;;;;5418566;26;20273;-69
2024/04/12 12:00:40;;;;;;;7.47;4.18;;;26.20;58.90;;;;;;5418093;26;20819;-68
2024/04/12 12:03:06;;;;;;;10.60;5.15;;;26.40;59.30;;;;;;5418260;26;20783;-69
2024/04/12 12:05:37;;;;;;;6.57;4.32;;;27.00;53.30;;;;;;5418367;26;20229;-67
2024/04/12 12:08:06;;;;;;;6.00;4.05;;;28.30;56.00;;;;;;5418340;26;20218;-68
2024/04/12 12:10:37;;;;;;;7.22;4.68;;;26.40;47.20;;;;;;5418036;26;20309;-68
2024/04/12 12:13:03;;;;;;;7.90;5.10;;;26.70;50.80;;;;;;5418040;26;20218;-68
2024/04/12 12:15:32;;;;;;;5.68;4.25;;;26.50;51.40;;;;;;5418010;26;20250;-68
2024/04/12 12:17:58;;;;;;;7.45;4.50;;;26.30;48.00;;;;;;5418163;26;20690;-68
2024/04/12 12:20:30;;;;;;;6.85;4.50;;;25.70;44.20;;;;;;5417871;26;20233;-68
2024/04/12 12:22:56;;;;;;;5.93;4.10;;;25.60;44.10;;;;;;5417981;26;20714;-68
2024/04/12 12:25:28;;;;;;;4.95;3.55;;;25.50;47.80;;;;;;5418061;26;20225;-69
2024/04/12 12:27:54;;;;;;;19.30;8.95;;;26.90;43.10;;;;;;5418134;26;20248;-69
2024/04/12 12:30:24;;;;;;;75.63;68.15;;;27.70;45.10;;;;;;5417902;26;20260;-68
2024/04/12 12:32:50;;;;;;;18.83;15.07;;;27.50;39.60;;;;;;5418002;26;20592;-68
2024/04/12 12:35:21;;;;;;;6.63;5.28;;;28.00;39.30;;;;;;5418106;26;20225;-68
2024/04/12 12:37:48;;;;;;;62.95;56.67;;;27.30;37.60;;;;;;5417850;26;20698;-68
2024/04/12 12:40:18;;;;;;;8.43;6.32;;;26.20;38.90;;;;;;5416324;26;20379;-67
2024/04/12 12:42:47;;;;;;;6.50;4.70;;;26.10;38.30;;;;;;5418202;26;20745;-68
2024/04/12 12:45:16;;;;;;;6.43;4.22;;;26.70;39.00;;;;;;5417692;26;20675;-69
2024/04/12 12:47:42;;;;;;;8.40;4.35;;;27.80;44.20;;;;;;5417638;26;20779;-69
2024/04/12 12:50:19;;;;;;;8.85;6.35;;;28.50;37.40;;;;;;5417524;26;20318;-68
2024/04/12 12:52:49;;;;;;;7.93;5.25;;;28.90;33.80;;;;;;5417627;26;20214;-68
2024/04/12 12:55:19;;;;;;;6.18;4.38;;;27.30;34.00;;;;;;5417587;26;20256;-68
2024/04/12 12:58:08;;;;;;;7.47;5.28;;;26.80;34.20;;;;;;5417434;26;20226;-68
2024/04/12 13:00:36;;;;;;;7.57;4.93;;;27.70;35.30;;;;;;5417319;26;20226;-67
2024/04/12 13:03:11;;;;;;;7.53;4.65;;;27.80;32.10;;;;;;5417293;26;20277;-68
2024/04/12 13:05:37;;;;;;;7.55;4.45;;;27.70;32.20;;;;;;5417290;26;20209;-68
2024/04/12 13:08:06;;;;;;;9.85;4.43;;;28.30;35.30;;;;;;5417461;26;20326;-68
2024/04/12 13:10:33;;;;;;;6.97;5.05;;;28.30;30.50;;;;;;5417077;26;20245;-67
2024/04/12 13:13:06;;;;;;;6.82;4.72;;;28.50;31.00;;;;;;5417200;26;20225;-68
2024/04/12 13:15:32;;;;;;;6.22;4.20;;;27.60;29.30;;;;;;5417290;26;20210;-70
2024/04/12 13:18:01;;;;;;;7.03;3.95;;;28.10;30.40;;;;;;5416880;26;20730;-70
2024/04/12 13:20:27;;;;;;;8.02;4.15;;;28.70;29.60;;;;;;5416876;26;20591;-69
2024/04/12 13:22:55;;;;;;;7.35;4.60;;;29.10;29.80;;;;;;5417116;26;20209;-70
2024/04/12 13:25:21;;;;;;;4.68;3.83;;;28.80;27.30;;;;;;5416713;26;20263;-70
2024/04/12 13:27:51;;;;;;;8.30;5.22;;;28.30;30.60;;;;;;5417125;26;20713;-70
2024/04/12 13:30:21;;;;;;;6.70;4.00;;;28.40;26.00;;;;;;5417138;26;20217;-69
2024/04/12 13:32:54;;;;;;;5.60;4.50;;;28.00;25.70;;;;;;5417139;26;20217;-70
2024/04/12 13:35:21;;;;;;;8.48;4.35;;;28.60;27.00;;;;;;5417171;26;20742;-70
2024/04/12 13:37:52;;;;;;;6.78;4.50;;;29.10;27.20;;;;;;5416954;26;20637;-69
2024/04/12 13:40:18;;;;;;;6.07;4.63;;;29.90;26.50;;;;;;5417119;26;20550;-69
2024/04/12 13:42:49;;;;;;;7.28;3.75;;;29.50;24.90;;;;;;5417136;26;20297;-69
2024/04/12 13:50:58;;;;;;;6.30;3.60;;;30.40;28.10;;;;;;5419246;26;20338;-69
2024/04/12 13:53:36;;;;;;;5.95;2.95;;;30.50;27.70;;;;;;5420367;26;20758;-69
2024/04/12 13:59:01;;;;;;;5.07;3.10;;;30.40;27.20;;;;;;5509019;25;20539;-68
2024/04/12 14:01:29;;;;;;;6.65;3.05;;;30.60;27.00;;;;;;5509297;25;20218;-68
2024/04/12 14:04:02;;;;;;;5.05;2.55;;;29.90;26.20;;;;;;5509118;25;20249;-68
2024/04/12 14:06:32;;;;;;;4.35;2.47;;;29.60;26.90;;;;;;5509332;25;20241;-68
2024/04/12 14:09:01;;;;;;;3.97;2.30;;;30.20;26.60;;;;;;5508956;25;20226;-68
2024/04/12 14:11:28;;;;;;;4.70;2.88;;;30.10;24.80;;;;;;5508959;25;20230;-69
2024/04/12 14:13:59;;;;;;;4.20;2.50;;;30.40;24.70;;;;;;5509310;25;20739;-68
2024/04/12 14:16:29;;;;;;;4.47;2.10;;;30.20;22.70;;;;;;5509606;25;20245;-70
2024/04/12 14:18:57;;;;;;;4.15;2.20;;;28.30;20.20;;;;;;5507869;25;20401;-68
2024/04/12 14:21:24;;;;;;;4.22;2.33;;;28.40;21.30;;;;;;5508896;25;20230;-68
2024/04/12 14:23:52;;;;;;;6.15;2.45;;;27.70;21.30;;;;;;5508735;25;20329;-69
2024/04/12 14:26:18;;;;;;;4.20;2.40;;;28.20;22.10;;;;;;5508020;25;20374;-69
2024/04/12 14:28:47;;;;;;;3.83;2.33;;;28.50;22.40;;;;;;5508589;25;20577;-69
2024/04/12 14:31:16;;;;;;;2.85;2.22;;;28.50;23.50;;;;;;5508660;25;20750;-69
2024/04/12 14:33:50;;;;;;;4.18;2.00;;;29.00;25.10;;;;;;5509067;25;20218;-69